Terminal Aerodrome Forecast
Issued by NWS

Home | Current Version | Previous Version | Text Only | Print | Product List | Glossary On
Versions: 1 2 3 4 5 6 7 8 9 10 11 12 13 14 15 16 17 18 19 20 21 22 23
953
FTUS46 KMTR 221730
TAFMRY
TAF
KMRY 221730Z 2218/2318 31005KT P6SM FEW005 FEW100
     FM221900 30009KT P6SM FEW100
     FM230300 24004KT P6SM FEW007
     FM230900 VRB03KT P6SM OVC004
     FM231700 29005KT P6SM FEW006=

USA.gov is the U.S. government's official web portal to all federal, state and local government web resources and services.